Data for 01/19/2013

Time Sea-Level Adjusted Pressure Absolute Pressure Temperature Relative Humidity Dew Point   
(mb) (inHg) (mb) (inHg) (C) (F) (%) (C) (F)
00:05 1021 30.15 851 25.13 4.2 39.5 27 -13.1 8.4
00:10 1021 30.15 851 25.13 4.3 39.8 26 -13.7 7.3
00:15 1021 30.15 851 25.13 4.8 40.6 26 -13.4 7.9
00:20 1022 30.18 851 25.13 4.7 40.4 27 -12.9 8.8
00:25 1022 30.18 851 25.13 4.2 39.6 28 -12.7 9.1
00:30 1022 30.18 851 25.13 3.6 38.4 30 -12.3 9.9
00:35 1022 30.18 851 25.13 2.8 37 33 -12.1 10.2
00:40 1022 30.18 851 25.13 2.3 36.2 33 -12.4 9.8
00:45 1022 30.18 851 25.13 2.1 35.8 33 -12.5 9.6
00:50 1022 30.18 851 25.13 2 35.6 34 -12.4 9.6
00:55 1021 30.15 851 25.13 1.8 35.3 35 -12.1 10.2
01:00 1021 30.15 851 25.13 1.6 34.9 34 -12.7 9.1
01:05 1021 30.15 851 25.13 1.7 35 33 -12.9 8.7
01:10 1021 30.15 851 25.13 2.1 35.8 30 -13.8 7.2
01:15 1021 30.15 851 25.13 2.9 37.2 30 -13.1 8.4
01:20 1021 30.15 851 25.13 2.9 37.2 30 -13 8.5
01:25 1021 30.15 851 25.13 2.8 37 31 -12.6 9.3
01:30 1021 30.15 851 25.13 2.6 36.6 31 -12.9 8.7
01:35 1021 30.15 851 25.13 2.5 36.5 34 -11.8 10.8
01:40 1022 30.18 851 25.13 1.5 34.7 36 -11.9 10.5
01:45 1022 30.18 851 25.13 1.1 33.9 37 -12 10.4
01:50 1022 30.18 851 25.13 0.9 33.6 38 -12 10.4
01:55 1022 30.18 851 25.13 0.9 33.7 37 -12.3 9.9
02:00 1022 30.18 851 25.13 1.1 34 36 -12.4 9.7
02:05 1022 30.18 851 25.13 1.3 34.3 34 -12.8 9
02:10 1022 30.18 851 25.13 1.5 34.7 33 -13 8.6
02:15 1022 30.18 851 25.13 1.8 35.2 32 -13.1 8.4
02:20 1022 30.18 851 25.13 2 35.6 32 -13.1 8.4
02:25 1022 30.18 852 25.16 2 35.7 32 -13 8.6
02:30 1022 30.18 852 25.16 2 35.6 32 -13 8.7
02:35 1022 30.18 852 25.16 1.8 35.3 32 -13.4 7.9
02:40 1022 30.18 852 25.16 2.1 35.7 31 -13.5 7.7
02:45 1023 30.21 852 25.16 2.3 36.1 31 -13.2 8.3
02:50 1023 30.21 852 25.16 2.1 35.8 32 -13.1 8.4
02:55 1023 30.21 852 25.16 1.9 35.5 32 -13 8.6
03:00 1023 30.21 852 25.16 1.9 35.4 32 -13.2 8.3
03:05 1023 30.21 852 25.16 2 35.6 32 -12.9 8.8
03:10 1023 30.21 852 25.16 1.7 35.1 33 -12.9 8.7
03:15 1023 30.21 852 25.16 1.6 34.9 33 -13.1 8.5
03:20 1023 30.21 852 25.16 1.6 34.9 33 -13 8.6
03:25 1023 30.21 852 25.16 1.5 34.7 34 -12.6 9.3
03:30 1023 30.21 852 25.16 0.7 33.2 37 -12.3 9.9
03:35 1023 30.21 852 25.16 -0.2 31.6 39 -12.6 9.3
03:40 1023 30.21 852 25.16 -0.5 31.2 39 -12.6 9.2
03:45 1023 30.21 852 25.16 -0.5 31.1 38 -13.1 8.3
03:50 1023 30.21 852 25.16 -0.2 31.6 38 -13 8.7
03:55 1023 30.21 852 25.16 0.1 32.1 37 -13.1 8.4
04:00 1023 30.21 852 25.16 0.3 32.5 37 -12.9 8.8
04:05 1023 30.21 852 25.16 0.1 32.1 38 -12.7 9.1
04:10 1023 30.21 852 25.16 -0.3 31.5 39 -12.7 9.2
04:15 1023 30.21 852 25.16 -0.5 31.1 39 -12.7 9.1
04:20 1023 30.21 852 25.16 -0.3 31.4 38 -13 8.6
04:25 1023 30.21 852 25.16 -0.2 31.7 37 -13.1 8.4
04:30 1023 30.21 852 25.16 -0.5 31.2 41 -12.2 10
04:35 1023 30.21 852 25.16 -0.9 30.4 39 -13.2 8.2
04:40 1023 30.21 852 25.16 -0.3 31.4 37 -13.2 8.3
04:45 1023 30.21 852 25.16 -0.1 31.8 37 -13.2 8.2
04:50 1023 30.21 852 25.16 -0 31.9 37 -13.2 8.2
04:55 1023 30.21 852 25.16 -0 31.9 36 -13.4 8
05:00 1023 30.21 852 25.16 0.1 32.2 35 -13.5 7.7
05:05 1023 30.21 853 25.19 0.4 32.7 35 -13.3 8.1
05:10 1023 30.21 853 25.19 -0.6 30.9 39 -12.9 8.7
05:15 1023 30.21 853 25.19 -1.6 29.1 44 -12.5 9.6
05:20 1023 30.21 853 25.19 -1.6 29 39 -13.9 7.1
05:25 1023 30.21 853 25.19 -0.5 31 39 -13 8.6
05:30 1023 30.21 853 25.19 -0.9 30.3 37 -13.8 7.2
05:35 1023 30.21 853 25.19 -0.8 30.5 38 -13.5 7.8
05:40 1023 30.21 853 25.19 -0.9 30.3 39 -13.3 8
05:45 1023 30.21 853 25.19 -1.3 29.7 40 -13.3 8
05:50 1023 30.21 853 25.19 -1.4 29.5 39 -13.5 7.7
05:55 1024 30.24 853 25.19 -1.4 29.5 40 -13.5 7.7
06:00 1024 30.24 853 25.19 -1.4 29.6 41 -13 8.5
06:05 1024 30.24 853 25.19 -2.2 28 43 -13.1 8.5
06:10 1024 30.24 853 25.19 -2.7 27.1 46 -12.9 8.8
06:15 1024 30.24 853 25.19 -2.7 27.1 43 -13.5 7.6
06:20 1024 30.24 853 25.19 -2.4 27.6 43 -13.3 8.1
06:25 1024 30.24 853 25.19 -2.3 27.8 42 -13.7 7.3
06:30 1024 30.24 853 25.19 -2.3 27.9 44 -13.1 8.5
06:35 1024 30.24 853 25.19 -2.3 27.8 43 -13.4 7.8
06:40 1023 30.21 853 25.19 -2.2 28 43 -13.1 8.4
06:45 1024 30.24 853 25.19 -2.4 27.8 43 -13.3 8
06:50 1024 30.24 853 25.19 -2.3 27.8 42 -13.6 7.5
06:55 1024 30.24 853 25.19 -2.3 27.9 42 -13.5 7.7
07:00 1024 30.24 853 25.19 -1.9 28.6 38 -14.5 5.8
07:05 1024 30.24 853 25.19 -1.5 29.2 39 -13.9 7
07:10 1024 30.24 853 25.19 -1.7 29 39 -14 6.8
07:15 1024 30.24 853 25.19 -1.6 29.2 38 -14.3 6.3
07:20 1024 30.24 853 25.19 -1.2 29.9 36 -14.5 5.9
07:25 1024 30.24 853 25.19 -0.9 30.4 36 -14.1 6.5
07:30 1024 30.24 853 25.19 -1.2 29.9 38 -13.9 6.9
07:35 1024 30.24 853 25.19 -1.7 28.9 40 -13.5 7.7
07:40 1024 30.24 853 25.19 -2.6 27.3 41 -14 6.8
07:45 1024 30.24 853 25.19 -2.2 28.1 40 -13.9 6.9
07:50 1024 30.24 853 25.19 -1.5 29.4 36 -14.6 5.8